WEATHER DATA

TODAY
Time Temp. Dewp. Hum. Wind dir Wind speed Wind gust Bar. 1h Prec. 24h Prec.
00:18 12.5 8.6 77 270 0.8 2.2 1012.4 0.0000 0.0000
00:29 12.4 8.7 78 262 1.4 2.8 1012.4 0.0000 0.0000
00:39 12.3 8.6 78 276 1.4 2.2 1012.3 0.0000 0.0000
00:49 12.3 8.8 79 270 1.4 2.5 1012.3 0.0000 0.0000
00:59 12.2 8.7 79 302 0.8 1.9 1012.3 0.0000 0.0000
01:09 12.1 8.6 79 18 0.6 1.4 1012.3 0.0000 0.0000
01:29 11.8 8.5 80 288 0.6 1.4 1012.3 0.0000 0.0000
01:40 11.7 8.4 80 270 0.8 2.2 1012.3 0.0000 0.0000
01:50 11.6 8.5 81 302 0.6 1.9 1012.2 0.0000 0.0000
02:10 11.5 8.4 81 270 0.3 1.4 1012.2 0.0000 0.0000
02:20 11.5 8.5 82 288 0.6 1.4 1012.4 0.0000 0.0000
02:30 11.5 8.5 82 270 0.3 0.8 1012.3 0.0000 0.0000
02:40 11.7 8.9 83 270 0.8 2.5 1012.2 0.0000 0.0000
03:00 12 9.2 83 281 1.4 2.2 1012.2 0.0000 0.0000
03:10 12.2 9.2 82 270 0.8 2.8 1012.1 0.0000 0.0000
03:20 12.4 9.2 81 284 1.4 2.8 1012.1 0.0000 0.0000
03:30 12.5 9.3 81 270 0.8 2.2 1012 0.0000 0.0000
03:40 12.5 9.3 81 270 0.8 3.1 1012 0.0000 0.0000
04:01 12.6 9.2 80 280 1.4 2.5 1011.9 0.0000 0.0000
04:20 12.7 9.3 80 317 0.8 2.2 1012 0.0000 0.0000
04:31 12.7 9.3 80 304 1.4 3.1 1012 0.0000 0.0000
04:46 12.7 9.3 80 312 0.8 2.5 1012 0.0000 0.0000
04:56 12.7 9.3 80 338 0.6 1.7 1012 0.0000 0.0000
05:11 12.7 9.5 81 315 0.6 1.9 1012 0.0000 0.0000
05:21 12.7 9.5 81 270 0.8 2.5 1012 0.0000 0.0000
05:31 12.7 9.5 81 308 0.8 2.5 1012 0.0000 0.0000
05:41 12.7 9.5 81 332 0.6 1.7 1012 0.0000 0.0000
05:52 12.7 9.5 81 304 0.8 2.2 1012 0.0000 0.0000
06:01 12.7 9.7 82 339 0.8 2.5 1012 0.0000 0.0000
06:11 12.8 9.8 82 341 0.6 1.9 1012 0.0000 0.0000
06:22 12.9 9.9 82 304 0.8 2.5 1011.9 0.0000 0.0000
06:32 12.9 9.9 82 300 0.8 2.2 1011.9 0.0000 0.0000
06:42 13 10 82 317 0.8 2.2 1011.9 0.0000 0.0000
06:52 13.1 10.1 82 288 0.8 2.5 1011.8 0.0000 0.0000
07:02 13.2 10.2 82 270 1.4 2.8 1011.8 0.0000 0.0000
07:12 13.3 10.3 82 318 0.8 2.5 1011.9 0.0000 0.0000
07:22 13.4 10.2 81 324 0.8 1.9 1011.8 0.0000 0.0000
07:32 13.5 10.3 81 315 0.6 1.7 1011.9 0.0000 0.0000
07:42 13.6 10.4 81 294 0.8 2.2 1011.9 0.0000 0.0000
07:52 13.8 10.4 80 332 0.6 1.7 1012 0.0000 0.0000
08:02 14 10.4 79 293 0.8 1.7 1011.9 0.0000 0.0000
08:13 14.2 10.6 79 296 0.6 1.9 1012 0.0000 0.0000
08:22 14.5 10.7 78 351 0.6 1.4 1012 0.0000 0.0000
08:32 14.8 10.8 77 315 0.6 1.7 1012 0.0000 0.0000
08:43 15 10.8 76 292 0.8 2.8 1012.1 0.0000 0.0000
08:53 15 10.6 75 315 0.6 1.7 1012 0.0000 0.0000
09:03 15.1 10.7 75 270 0.8 1.7 1012.1 0.0000 0.0000
09:13 15.2 10.6 74 255 0.6 1.9 1012.1 0.0000 0.0000
09:23 15.1 10.7 75 320 0.6 1.7 1012.1 0.0000 0.0000
09:38 15.7 10.7 72 349 0.6 1.7 1012.1 0.0000 0.0000
09:48 15.7 10.9 73 351 0.6 1.7 1012.1 0.0000 0.0000
09:58 15.7 10.9 73 208 0.6 1.7 1012.2 0.0000 0.0000
10:08 15.8 11 73 183 0.6 1.9 1012.3 0.0000 0.0000
10:18 15.9 10.9 72 307 0.6 1.7 1012.3 0.0000 0.0000
10:29 16 11 72 139 0.6 1.7 1012.3 0.0000 0.0000
10:48 16.2 10.7 70 270 0.8 1.9 1012.3 0.0000 0.0000
10:58 16.3 11.2 72 248 0.6 1.7 1012.3 0.0000 0.0000
11:09 16.3 11.2 72 230 0.6 1.7 1012.3 0.0000 0.0000
11:19 16.4 11.1 71 135 0.6 1.7 1012.3 0.0000 0.0000
11:29 16.6 11.3 71 311 0.6 1.9 1012.3 0.0000 0.0000
11:39 16.7 11.4 71 45 0.6 1.7 1012.3 0.0000 0.0000
11:49 16.6 11.1 70 220 0.6 1.7 1012.3 0.0000 0.0000
11:59 16.6 11.3 71 155 0.8 1.9 1012.4 0.0000 0.0000
12:09 16.8 11.5 71 110 0.6 1.4 1012.4 0.0000 0.0000
12:20 16.8 11.3 70 170 0.6 1.7 1012.4 0.0000 0.0000
12:29 16.9 11.4 70 135 0.6 1.4 1012.4 0.0000 0.0000
12:39 16.9 11.4 70 138 0.6 1.4 1012.4 0.0000 0.0000
12:50 17.3 11.6 69 304 0.6 1.4 1012.4 0.0000 0.0000
13:00 17.5 11.5 68 270 0.3 1.4 1012.4 0.0000 0.0000
13:10 17.7 11.5 67 292 0.6 1.9 1012.4 0.0000 0.0000
13:20 17.8 11.4 66 315 0.6 1.9 1012.4 0.0000 0.0000
13:30 17.8 11.4 66 270 0.3 1.4 1012.4 0.0000 0.0000
13:40 17.7 11.3 66 146 0.6 1.4 1012.3 0.0000 0.0000
13:50 17.9 11.5 66 288 0.6 1.4 1012.3 0.0000 0.0000
13:55 18 11.6 66 270 0.6 1.9 1012.3 0.0000 0.0000
14:07 17.8 11.6 67 248 0.8 2.2 1012.4 0.0000 0.0000
14:17 17.8 11.6 67 270 0.8 2.8 1012.4 0.0000 0.0000
14:28 17.7 11.7 68 209 0.8 2.2 1012.3 0.0000 0.0000
14:38 17.7 11.9 69 270 0.6 1.9 1012.3 0.0000 0.0000
14:47 17.7 11.7 68 236 0.8 2.2 1012.3 0.0000 0.0000
14:58 17.5 11.8 69 218 0.6 1.9 1012.2 0.0000 0.0000
15:08 17.5 12 70 245 0.8 2.2 1012.2 0.0000 0.0000
15:18 17.4 11.7 69 225 0.8 1.9 1012.2 0.0000 0.0000
15:28 17.5 12 70 280 0.8 2.8 1012.2 0.0000 0.0000
15:38 17.6 11.6 68 270 0.6 1.7 1012.2 0.0000 0.0000
15:48 17.6 11.6 68 222 0.6 1.7 1012.2 0.0000 0.0000
15:58 17.6 11.9 69 211 0.6 1.9 1012.2 0.0000 0.0000
16:09 17.9 12.4 70 242 0.6 1.7 1012.1 0.0000 0.0000
16:18 18.6 12.1 66 270 0.6 1.9 1012.1 0.0000 0.0000
16:28 18.9 12.4 66 248 0.6 1.9 1012 0.0000 0.0000
16:39 18.9 11.9 64 220 0.8 2.2 1011.9 0.0000 0.0000
16:49 19.3 11.8 62 270 0.8 2.2 1011.9 0.0000 0.0000
16:59 19.5 12.5 64 225 0.6 1.4 1011.6 0.0000 0.0000
17:39 20.3 12.3 60 303 0.6 2.2 1011.5 0.0000 0.0000
17:49 19.9 11.9 60 246 0.6 1.7 1011.3 0.0000 0.0000
18:04 20.1 11.6 58 0 0.3 1.7 1011.2 0.0000 0.0000
18:14 20.3 12 59 297 0.6 1.9 1011.2 0.0000 0.0000
18:24 20.4 11.9 58 292 0.6 1.9 1011.1 0.0000 0.0000
18:34 20.5 12 58 315 0.6 1.4 1011.1 0.0000 0.0000
18:44 20.2 11.9 59 189 0.6 1.4 1011 0.0000 0.0000
18:54 20.2 11.4 57 90 0.3 1.4 1010.9 0.0000 0.0000
19:05 20.2 12.2 60 220 0.3 1.7 1011 0.0000 0.0000
19:15 19.9 11.7 59 156 0.3 1.4 1011 0.0000 0.0000
19:24 20.1 11.8 59 0 0.3 1.4 1011 0.0000 0.0000
19:35 20.3 12 59 237 0.6 1.4 1010.9 0.0000 0.0000
19:45 20.4 12.1 59 216 0.3 1.4 1010.9 0.0000 0.0000
19:55 20.5 12 58 180 0.6 1.4 1010.9 0.0000 0.0000
20:05 20.6 12.1 58 183 0.3 0.8 1010.9 0.0000 0.0000
20:15 20.5 12.2 59 190 0.3 0.8 1011 0.0000 0.0000
20:25 20.4 12.1 59 135 0.3 0.8 1011 0.0000 0.0000
20:35 20.3 12.3 60 135 0.3 0.8 1011 0.0000 0.0000

DAY STATISTIC

2019-07-17
TEMPERATURE
AVERAGE
15.9
HIGH
20.6
20:05
LOW
11.5
02:10
PRESSURE
AVERAGE
1012.0
HIGH
1012.4
00:18
LOW
1010.9
18:54
DEWPOINT
AVERAGE
10.7
HIGH
12.5
16:59
LOW
8.4
01:40
HUMIDITY
AVERAGE
72
HIGH
83
02:40
LOW
57
18:54
WIND SPEED
AVERAGE
0.7
HIGH
1.4
00:29
WIND GUST
AVERAGE
1.9
HIGH
3.1
03:40
WIND DIRECTION
PREVAILING
W
34.2%
N
8.1
NE
0.9
E
1.8
SE
8.1
S
5.4
SW
15.3
W
34.2
NW
26.1
PRECIPITATION
RAIN HOUR
0.0
RAIN DAY
0.0
TEMPERATURE (°C)
LOW
11.5
HIGH
20.6
AVERAGE
15.9
PRESSURE (hpa)
LOW
1010.9
HIGH
1012.4
AVERAGE
1012.0
DEVICE